sensor_id;sensor_type;location;lat;lon;timestamp;P1;durP1;ratioP1;P2;durP2;ratioP2
19036;SDS011;9651;49.138;8.900;2023-08-21T00:01:54;8.27;;;5.85;;
19036;SDS011;9651;49.138;8.900;2023-08-21T00:05:55;6.63;;;5.28;;
19036;SDS011;9651;49.138;8.900;2023-08-21T00:09:59;5.70;;;5.15;;
19036;SDS011;9651;49.138;8.900;2023-08-21T00:14:00;6.00;;;5.30;;
19036;SDS011;9651;49.138;8.900;2023-08-21T00:18:02;12.18;;;5.75;;
19036;SDS011;9651;49.138;8.900;2023-08-21T00:22:05;10.63;;;5.63;;
19036;SDS011;9651;49.138;8.900;2023-08-21T00:26:08;6.65;;;5.25;;
19036;SDS011;9651;49.138;8.900;2023-08-21T00:30:10;6.90;;;5.38;;
19036;SDS011;9651;49.138;8.900;2023-08-21T00:34:16;6.82;;;6.22;;
19036;SDS011;9651;49.138;8.900;2023-08-21T00:38:18;7.93;;;5.53;;
19036;SDS011;9651;49.138;8.900;2023-08-21T00:42:21;8.07;;;4.85;;
19036;SDS011;9651;49.138;8.900;2023-08-21T00:46:23;9.27;;;5.93;;
19036;SDS011;9651;49.138;8.900;2023-08-21T00:50:25;7.63;;;5.57;;
19036;SDS011;9651;49.138;8.900;2023-08-21T00:54:27;7.85;;;5.88;;
19036;SDS011;9651;49.138;8.900;2023-08-21T00:58:30;9.40;;;6.45;;
19036;SDS011;9651;49.138;8.900;2023-08-21T01:02:32;8.20;;;6.53;;
19036;SDS011;9651;49.138;8.900;2023-08-21T01:06:34;6.70;;;5.85;;
19036;SDS011;9651;49.138;8.900;2023-08-21T01:10:39;6.78;;;5.70;;
19036;SDS011;9651;49.138;8.900;2023-08-21T01:14:54;10.45;;;5.63;;
19036;SDS011;9651;49.138;8.900;2023-08-21T01:18:59;10.48;;;6.00;;
19036;SDS011;9651;49.138;8.900;2023-08-21T01:23:04;8.77;;;5.75;;
19036;SDS011;9651;49.138;8.900;2023-08-21T01:27:08;6.85;;;5.57;;
19036;SDS011;9651;49.138;8.900;2023-08-21T01:31:12;8.80;;;5.25;;
19036;SDS011;9651;49.138;8.900;2023-08-21T01:35:18;7.20;;;5.70;;
19036;SDS011;9651;49.138;8.900;2023-08-21T01:39:21;6.60;;;5.40;;
19036;SDS011;9651;49.138;8.900;2023-08-21T01:43:25;6.07;;;5.28;;
19036;SDS011;9651;49.138;8.900;2023-08-21T01:47:27;10.77;;;5.78;;
19036;SDS011;9651;49.138;8.900;2023-08-21T01:51:29;8.10;;;5.78;;
19036;SDS011;9651;49.138;8.900;2023-08-21T01:55:31;6.97;;;5.38;;
19036;SDS011;9651;49.138;8.900;2023-08-21T01:59:34;10.82;;;5.68;;
19036;SDS011;9651;49.138;8.900;2023-08-21T02:03:36;7.95;;;5.38;;
19036;SDS011;9651;49.138;8.900;2023-08-21T02:07:38;6.13;;;5.40;;
19036;SDS011;9651;49.138;8.900;2023-08-21T02:11:40;8.48;;;6.57;;
19036;SDS011;9651;49.138;8.900;2023-08-21T02:15:43;7.38;;;5.65;;
19036;SDS011;9651;49.138;8.900;2023-08-21T02:19:46;8.02;;;5.45;;
19036;SDS011;9651;49.138;8.900;2023-08-21T02:23:48;6.75;;;5.43;;
19036;SDS011;9651;49.138;8.900;2023-08-21T02:27:50;5.90;;;5.28;;
19036;SDS011;9651;49.138;8.900;2023-08-21T02:31:53;7.38;;;5.47;;
19036;SDS011;9651;49.138;8.900;2023-08-21T02:35:56;9.35;;;5.68;;
19036;SDS011;9651;49.138;8.900;2023-08-21T02:39:58;8.05;;;5.43;;
19036;SDS011;9651;49.138;8.900;2023-08-21T02:44:00;6.28;;;5.68;;
19036;SDS011;9651;49.138;8.900;2023-08-21T02:48:04;6.90;;;5.35;;
19036;SDS011;9651;49.138;8.900;2023-08-21T02:52:08;8.80;;;5.80;;
19036;SDS011;9651;49.138;8.900;2023-08-21T02:56:10;6.22;;;5.32;;
19036;SDS011;9651;49.138;8.900;2023-08-21T03:00:12;6.30;;;5.70;;
19036;SDS011;9651;49.138;8.900;2023-08-21T03:04:15;7.80;;;6.35;;
19036;SDS011;9651;49.138;8.900;2023-08-21T03:08:17;6.72;;;5.50;;
19036;SDS011;9651;49.138;8.900;2023-08-21T03:12:19;6.40;;;4.85;;
19036;SDS011;9651;49.138;8.900;2023-08-21T03:16:22;7.00;;;5.47;;
19036;SDS011;9651;49.138;8.900;2023-08-21T03:20:25;7.60;;;6.00;;
19036;SDS011;9651;49.138;8.900;2023-08-21T03:24:27;8.00;;;5.82;;
19036;SDS011;9651;49.138;8.900;2023-08-21T03:28:29;7.40;;;5.63;;
19036;SDS011;9651;49.138;8.900;2023-08-21T03:32:31;8.15;;;5.93;;
19036;SDS011;9651;49.138;8.900;2023-08-21T03:36:35;7.70;;;5.88;;
19036;SDS011;9651;49.138;8.900;2023-08-21T03:40:39;7.10;;;5.38;;
19036;SDS011;9651;49.138;8.900;2023-08-21T03:44:41;10.43;;;6.80;;
19036;SDS011;9651;49.138;8.900;2023-08-21T03:48:42;6.90;;;5.95;;
19036;SDS011;9651;49.138;8.900;2023-08-21T03:52:46;8.57;;;6.25;;
19036;SDS011;9651;49.138;8.900;2023-08-21T03:56:48;10.43;;;6.13;;
19036;SDS011;9651;49.138;8.900;2023-08-21T04:00:50;8.30;;;5.88;;
19036;SDS011;9651;49.138;8.900;2023-08-21T04:04:51;6.85;;;5.47;;
19036;SDS011;9651;49.138;8.900;2023-08-21T04:08:55;10.32;;;6.47;;
19036;SDS011;9651;49.138;8.900;2023-08-21T04:12:56;8.32;;;5.72;;
19036;SDS011;9651;49.138;8.900;2023-08-21T04:16:58;9.82;;;5.97;;
19036;SDS011;9651;49.138;8.900;2023-08-21T04:21:01;10.85;;;6.35;;
19036;SDS011;9651;49.138;8.900;2023-08-21T04:25:05;6.55;;;5.35;;
19036;SDS011;9651;49.138;8.900;2023-08-21T04:29:07;8.40;;;6.13;;
19036;SDS011;9651;49.138;8.900;2023-08-21T04:33:11;8.95;;;5.30;;
19036;SDS011;9651;49.138;8.900;2023-08-21T04:37:12;8.90;;;5.90;;
19036;SDS011;9651;49.138;8.900;2023-08-21T04:41:16;7.18;;;6.15;;
19036;SDS011;9651;49.138;8.900;2023-08-21T04:45:20;8.27;;;6.43;;
19036;SDS011;9651;49.138;8.900;2023-08-21T04:49:22;5.88;;;5.28;;
19036;SDS011;9651;49.138;8.900;2023-08-21T04:53:24;8.48;;;5.47;;
19036;SDS011;9651;49.138;8.900;2023-08-21T04:57:27;9.25;;;5.80;;
19036;SDS011;9651;49.138;8.900;2023-08-21T05:01:31;9.57;;;5.78;;
19036;SDS011;9651;49.138;8.900;2023-08-21T05:05:35;6.20;;;5.57;;
19036;SDS011;9651;49.138;8.900;2023-08-21T05:09:37;6.53;;;5.03;;
19036;SDS011;9651;49.138;8.900;2023-08-21T05:13:42;5.13;;;4.65;;
19036;SDS011;9651;49.138;8.900;2023-08-21T05:17:46;7.00;;;5.78;;
19036;SDS011;9651;49.138;8.900;2023-08-21T05:21:48;7.07;;;5.45;;
19036;SDS011;9651;49.138;8.900;2023-08-21T05:25:50;9.95;;;5.45;;
19036;SDS011;9651;49.138;8.900;2023-08-21T05:29:54;5.78;;;5.25;;
19036;SDS011;9651;49.138;8.900;2023-08-21T05:33:56;8.13;;;5.53;;
19036;SDS011;9651;49.138;8.900;2023-08-21T05:37:58;9.55;;;6.20;;
19036;SDS011;9651;49.138;8.900;2023-08-21T05:41:59;8.60;;;5.97;;
19036;SDS011;9651;49.138;8.900;2023-08-21T05:46:06;8.20;;;5.18;;
19036;SDS011;9651;49.138;8.900;2023-08-21T05:50:08;6.32;;;5.65;;
19036;SDS011;9651;49.138;8.900;2023-08-21T05:54:12;9.63;;;6.75;;
19036;SDS011;9651;49.138;8.900;2023-08-21T05:58:15;6.22;;;5.63;;
19036;SDS011;9651;49.138;8.900;2023-08-21T06:02:19;10.82;;;7.13;;
19036;SDS011;9651;49.138;8.900;2023-08-21T06:06:21;7.78;;;6.25;;
19036;SDS011;9651;49.138;8.900;2023-08-21T06:10:23;9.10;;;6.50;;
19036;SDS011;9651;49.138;8.900;2023-08-21T06:14:25;6.32;;;5.72;;
19036;SDS011;9651;49.138;8.900;2023-08-21T06:18:33;8.20;;;6.10;;
19036;SDS011;9651;49.138;8.900;2023-08-21T06:22:35;7.13;;;5.13;;
19036;SDS011;9651;49.138;8.900;2023-08-21T06:26:37;6.60;;;5.28;;
19036;SDS011;9651;49.138;8.900;2023-08-21T06:30:39;6.07;;;4.75;;
19036;SDS011;9651;49.138;8.900;2023-08-21T06:34:42;5.63;;;4.90;;
19036;SDS011;9651;49.138;8.900;2023-08-21T06:38:44;7.60;;;5.03;;
19036;SDS011;9651;49.138;8.900;2023-08-21T06:42:46;8.30;;;5.30;;
19036;SDS011;9651;49.138;8.900;2023-08-21T06:46:52;5.55;;;4.78;;
19036;SDS011;9651;49.138;8.900;2023-08-21T06:50:55;8.88;;;5.38;;
19036;SDS011;9651;49.138;8.900;2023-08-21T06:54:57;7.28;;;5.50;;
19036;SDS011;9651;49.138;8.900;2023-08-21T06:58:59;5.53;;;5.03;;
19036;SDS011;9651;49.138;8.900;2023-08-21T07:03:02;8.98;;;6.03;;
19036;SDS011;9651;49.138;8.900;2023-08-21T07:07:08;7.40;;;5.65;;
19036;SDS011;9651;49.138;8.900;2023-08-21T07:11:10;7.28;;;5.30;;
19036;SDS011;9651;49.138;8.900;2023-08-21T07:15:12;7.78;;;5.45;;
19036;SDS011;9651;49.138;8.900;2023-08-21T07:19:16;7.35;;;5.13;;
19036;SDS011;9651;49.138;8.900;2023-08-21T07:23:19;8.60;;;5.90;;
19036;SDS011;9651;49.138;8.900;2023-08-21T07:27:21;7.57;;;5.55;;
19036;SDS011;9651;49.138;8.900;2023-08-21T07:31:23;9.05;;;5.35;;
19036;SDS011;9651;49.138;8.900;2023-08-21T07:35:25;5.88;;;5.38;;
19036;SDS011;9651;49.138;8.900;2023-08-21T07:39:28;6.00;;;5.40;;
19036;SDS011;9651;49.138;8.900;2023-08-21T07:43:30;8.55;;;6.28;;
19036;SDS011;9651;49.138;8.900;2023-08-21T07:47:32;6.88;;;6.13;;
19036;SDS011;9651;49.138;8.900;2023-08-21T07:51:35;7.15;;;6.13;;
19036;SDS011;9651;49.138;8.900;2023-08-21T07:55:38;9.40;;;6.63;;
19036;SDS011;9651;49.138;8.900;2023-08-21T07:59:40;7.57;;;6.13;;
19036;SDS011;9651;49.138;8.900;2023-08-21T08:03:41;9.60;;;6.43;;
19036;SDS011;9651;49.138;8.900;2023-08-21T08:07:43;12.70;;;7.55;;
19036;SDS011;9651;49.138;8.900;2023-08-21T08:11:46;10.07;;;6.68;;
19036;SDS011;9651;49.138;8.900;2023-08-21T08:15:48;9.07;;;6.07;;
19036;SDS011;9651;49.138;8.900;2023-08-21T08:19:50;8.35;;;7.10;;
19036;SDS011;9651;49.138;8.900;2023-08-21T08:23:52;9.63;;;7.28;;
19036;SDS011;9651;49.138;8.900;2023-08-21T08:27:55;10.27;;;6.45;;
19036;SDS011;9651;49.138;8.900;2023-08-21T08:31:57;7.75;;;6.95;;
19036;SDS011;9651;49.138;8.900;2023-08-21T08:35:59;10.23;;;7.10;;
19036;SDS011;9651;49.138;8.900;2023-08-21T08:40:01;14.20;;;7.85;;
19036;SDS011;9651;49.138;8.900;2023-08-21T08:44:06;10.90;;;6.78;;
19036;SDS011;9651;49.138;8.900;2023-08-21T08:48:08;7.75;;;6.63;;
19036;SDS011;9651;49.138;8.900;2023-08-21T08:52:11;9.95;;;7.10;;
19036;SDS011;9651;49.138;8.900;2023-08-21T08:56:13;10.35;;;6.50;;
19036;SDS011;9651;49.138;8.900;2023-08-21T09:00:16;9.32;;;6.43;;
19036;SDS011;9651;49.138;8.900;2023-08-21T09:04:18;8.98;;;6.25;;
19036;SDS011;9651;49.138;8.900;2023-08-21T09:08:22;10.00;;;6.70;;
19036;SDS011;9651;49.138;8.900;2023-08-21T09:12:24;12.27;;;5.93;;
19036;SDS011;9651;49.138;8.900;2023-08-21T09:16:27;8.68;;;6.55;;
19036;SDS011;9651;49.138;8.900;2023-08-21T09:20:33;9.10;;;6.65;;
19036;SDS011;9651;49.138;8.900;2023-08-21T09:24:36;8.65;;;6.30;;
19036;SDS011;9651;49.138;8.900;2023-08-21T09:28:38;9.45;;;6.57;;
19036;SDS011;9651;49.138;8.900;2023-08-21T09:32:53;10.35;;;6.55;;
19036;SDS011;9651;49.138;8.900;2023-08-21T09:36:56;10.10;;;6.40;;
19036;SDS011;9651;49.138;8.900;2023-08-21T09:40:58;6.63;;;6.03;;
19036;SDS011;9651;49.138;8.900;2023-08-21T09:45:00;6.57;;;5.65;;
19036;SDS011;9651;49.138;8.900;2023-08-21T09:49:05;7.75;;;5.70;;
19036;SDS011;9651;49.138;8.900;2023-08-21T09:53:07;7.70;;;6.60;;
19036;SDS011;9651;49.138;8.900;2023-08-21T09:57:09;5.50;;;5.10;;
19036;SDS011;9651;49.138;8.900;2023-08-21T10:01:13;6.30;;;4.95;;
19036;SDS011;9651;49.138;8.900;2023-08-21T10:05:18;6.53;;;5.30;;
19036;SDS011;9651;49.138;8.900;2023-08-21T10:09:20;5.57;;;5.05;;
19036;SDS011;9651;49.138;8.900;2023-08-21T10:13:24;6.80;;;5.18;;
19036;SDS011;9651;49.138;8.900;2023-08-21T10:17:26;6.43;;;5.32;;
19036;SDS011;9651;49.138;8.900;2023-08-21T10:21:30;9.23;;;5.60;;
19036;SDS011;9651;49.138;8.900;2023-08-21T10:25:40;6.20;;;5.60;;
19036;SDS011;9651;49.138;8.900;2023-08-21T10:29:45;5.88;;;4.72;;
19036;SDS011;9651;49.138;8.900;2023-08-21T10:33:57;6.78;;;4.28;;
19036;SDS011;9651;49.138;8.900;2023-08-21T10:38:11;5.10;;;4.57;;
19036;SDS011;9651;49.138;8.900;2023-08-21T10:42:14;6.18;;;5.00;;
19036;SDS011;9651;49.138;8.900;2023-08-21T10:46:16;6.47;;;5.03;;
19036;SDS011;9651;49.138;8.900;2023-08-21T10:50:18;7.55;;;4.63;;
19036;SDS011;9651;49.138;8.900;2023-08-21T10:54:21;7.88;;;4.57;;
19036;SDS011;9651;49.138;8.900;2023-08-21T10:58:23;7.68;;;4.18;;
19036;SDS011;9651;49.138;8.900;2023-08-21T11:02:25;4.53;;;3.92;;
19036;SDS011;9651;49.138;8.900;2023-08-21T11:06:29;5.63;;;4.70;;
19036;SDS011;9651;49.138;8.900;2023-08-21T11:10:32;4.65;;;4.18;;
19036;SDS011;9651;49.138;8.900;2023-08-21T11:14:34;7.38;;;4.45;;
19036;SDS011;9651;49.138;8.900;2023-08-21T11:18:36;4.90;;;4.40;;
19036;SDS011;9651;49.138;8.900;2023-08-21T11:22:39;4.35;;;4.00;;
19036;SDS011;9651;49.138;8.900;2023-08-21T11:26:42;5.00;;;4.30;;
19036;SDS011;9651;49.138;8.900;2023-08-21T11:30:44;6.40;;;4.43;;
19036;SDS011;9651;49.138;8.900;2023-08-21T11:34:47;6.32;;;4.63;;
19036;SDS011;9651;49.138;8.900;2023-08-21T11:38:57;4.90;;;4.50;;
19036;SDS011;9651;49.138;8.900;2023-08-21T11:43:01;9.43;;;5.00;;
19036;SDS011;9651;49.138;8.900;2023-08-21T11:47:05;5.05;;;4.65;;
19036;SDS011;9651;49.138;8.900;2023-08-21T11:51:07;7.88;;;4.93;;
19036;SDS011;9651;49.138;8.900;2023-08-21T11:55:09;6.18;;;4.78;;
19036;SDS011;9651;49.138;8.900;2023-08-21T11:59:21;5.78;;;4.57;;
19036;SDS011;9651;49.138;8.900;2023-08-21T12:03:23;6.00;;;4.60;;
19036;SDS011;9651;49.138;8.900;2023-08-21T12:07:25;6.40;;;4.38;;
19036;SDS011;9651;49.138;8.900;2023-08-21T12:11:27;5.50;;;4.53;;
19036;SDS011;9651;49.138;8.900;2023-08-21T12:15:30;8.13;;;4.88;;
19036;SDS011;9651;49.138;8.900;2023-08-21T12:19:32;8.00;;;4.50;;
19036;SDS011;9651;49.138;8.900;2023-08-21T12:23:34;7.72;;;4.93;;
19036;SDS011;9651;49.138;8.900;2023-08-21T12:27:36;8.30;;;7.00;;
19036;SDS011;9651;49.138;8.900;2023-08-21T12:31:39;7.38;;;4.78;;
19036;SDS011;9651;49.138;8.900;2023-08-21T12:35:41;9.77;;;4.72;;
19036;SDS011;9651;49.138;8.900;2023-08-21T12:39:43;7.40;;;4.50;;
19036;SDS011;9651;49.138;8.900;2023-08-21T12:43:45;8.35;;;4.20;;
19036;SDS011;9651;49.138;8.900;2023-08-21T12:47:49;4.45;;;4.05;;
19036;SDS011;9651;49.138;8.900;2023-08-21T12:51:51;7.18;;;4.57;;
19036;SDS011;9651;49.138;8.900;2023-08-21T12:55:53;4.20;;;3.90;;
19036;SDS011;9651;49.138;8.900;2023-08-21T12:59:54;6.40;;;4.25;;
19036;SDS011;9651;49.138;8.900;2023-08-21T13:03:58;4.90;;;4.50;;
19036;SDS011;9651;49.138;8.900;2023-08-21T13:08:00;5.45;;;4.38;;
19036;SDS011;9651;49.138;8.900;2023-08-21T13:12:02;6.60;;;4.40;;
19036;SDS011;9651;49.138;8.900;2023-08-21T13:16:04;4.63;;;4.22;;
19036;SDS011;9651;49.138;8.900;2023-08-21T13:20:08;7.57;;;4.30;;
19036;SDS011;9651;49.138;8.900;2023-08-21T13:24:11;6.20;;;3.97;;
19036;SDS011;9651;49.138;8.900;2023-08-21T13:28:15;4.50;;;3.55;;
19036;SDS011;9651;49.138;8.900;2023-08-21T13:32:17;6.18;;;4.10;;
19036;SDS011;9651;49.138;8.900;2023-08-21T13:36:20;8.32;;;4.63;;
19036;SDS011;9651;49.138;8.900;2023-08-21T13:40:23;5.93;;;4.00;;
19036;SDS011;9651;49.138;8.900;2023-08-21T13:44:25;4.65;;;4.25;;
19036;SDS011;9651;49.138;8.900;2023-08-21T13:48:26;4.72;;;3.80;;
19036;SDS011;9651;49.138;8.900;2023-08-21T13:52:30;5.07;;;4.07;;
19036;SDS011;9651;49.138;8.900;2023-08-21T13:56:32;5.93;;;4.20;;
19036;SDS011;9651;49.138;8.900;2023-08-21T14:00:34;6.18;;;4.13;;
19036;SDS011;9651;49.138;8.900;2023-08-21T14:04:36;8.00;;;4.10;;
19036;SDS011;9651;49.138;8.900;2023-08-21T14:08:40;5.22;;;3.88;;
19036;SDS011;9651;49.138;8.900;2023-08-21T14:12:43;5.43;;;4.22;;
19036;SDS011;9651;49.138;8.900;2023-08-21T14:16:44;6.00;;;3.85;;
19036;SDS011;9651;49.138;8.900;2023-08-21T14:20:46;4.45;;;4.05;;
19036;SDS011;9651;49.138;8.900;2023-08-21T14:24:50;4.47;;;3.83;;
19036;SDS011;9651;49.138;8.900;2023-08-21T14:28:51;6.00;;;3.60;;
19036;SDS011;9651;49.138;8.900;2023-08-21T14:32:53;5.30;;;3.90;;
19036;SDS011;9651;49.138;8.900;2023-08-21T14:36:55;6.35;;;4.05;;
19036;SDS011;9651;49.138;8.900;2023-08-21T14:40:59;4.40;;;3.95;;
19036;SDS011;9651;49.138;8.900;2023-08-21T14:45:01;7.07;;;3.90;;
19036;SDS011;9651;49.138;8.900;2023-08-21T14:49:04;4.22;;;3.83;;
19036;SDS011;9651;49.138;8.900;2023-08-21T14:53:05;4.57;;;3.88;;
19036;SDS011;9651;49.138;8.900;2023-08-21T14:57:09;6.07;;;4.05;;
19036;SDS011;9651;49.138;8.900;2023-08-21T15:01:11;5.72;;;3.92;;
19036;SDS011;9651;49.138;8.900;2023-08-21T15:05:13;4.10;;;3.63;;
19036;SDS011;9651;49.138;8.900;2023-08-21T15:09:16;4.82;;;3.55;;
19036;SDS011;9651;49.138;8.900;2023-08-21T15:13:19;5.28;;;3.85;;
19036;SDS011;9651;49.138;8.900;2023-08-21T15:17:21;6.78;;;3.95;;
19036;SDS011;9651;49.138;8.900;2023-08-21T15:21:23;5.10;;;3.53;;
19036;SDS011;9651;49.138;8.900;2023-08-21T15:25:25;4.57;;;3.70;;
19036;SDS011;9651;49.138;8.900;2023-08-21T15:29:29;4.10;;;3.67;;
19036;SDS011;9651;49.138;8.900;2023-08-21T15:33:30;4.30;;;3.90;;
19036;SDS011;9651;49.138;8.900;2023-08-21T15:37:32;5.93;;;4.00;;
19036;SDS011;9651;49.138;8.900;2023-08-21T15:41:34;3.60;;;3.30;;
19036;SDS011;9651;49.138;8.900;2023-08-21T15:45:37;5.30;;;3.38;;
19036;SDS011;9651;49.138;8.900;2023-08-21T15:49:39;5.50;;;2.95;;
19036;SDS011;9651;49.138;8.900;2023-08-21T15:53:41;4.03;;;3.72;;
19036;SDS011;9651;49.138;8.900;2023-08-21T15:57:43;4.13;;;3.75;;
19036;SDS011;9651;49.138;8.900;2023-08-21T16:01:46;4.15;;;3.40;;
19036;SDS011;9651;49.138;8.900;2023-08-21T16:05:48;5.78;;;2.97;;
19036;SDS011;9651;49.138;8.900;2023-08-21T16:09:50;4.28;;;2.70;;
19036;SDS011;9651;49.138;8.900;2023-08-21T16:13:52;4.13;;;3.05;;
19036;SDS011;9651;49.138;8.900;2023-08-21T16:17:57;7.32;;;2.97;;
19036;SDS011;9651;49.138;8.900;2023-08-21T16:21:59;6.43;;;3.20;;
19036;SDS011;9651;49.138;8.900;2023-08-21T16:26:01;5.95;;;3.63;;
19036;SDS011;9651;49.138;8.900;2023-08-21T16:30:03;4.20;;;3.50;;
19036;SDS011;9651;49.138;8.900;2023-08-21T16:34:07;6.78;;;4.00;;
19036;SDS011;9651;49.138;8.900;2023-08-21T16:38:09;3.78;;;3.47;;
19036;SDS011;9651;49.138;8.900;2023-08-21T16:42:11;7.60;;;3.47;;
19036;SDS011;9651;49.138;8.900;2023-08-21T16:46:16;8.68;;;4.03;;
19036;SDS011;9651;49.138;8.900;2023-08-21T16:50:19;10.02;;;4.10;;
19036;SDS011;9651;49.138;8.900;2023-08-21T16:54:21;7.65;;;3.80;;
19036;SDS011;9651;49.138;8.900;2023-08-21T16:58:23;3.60;;;3.30;;
19036;SDS011;9651;49.138;8.900;2023-08-21T17:02:24;5.25;;;3.60;;
19036;SDS011;9651;49.138;8.900;2023-08-21T17:06:28;4.63;;;3.65;;
19036;SDS011;9651;49.138;8.900;2023-08-21T17:10:29;4.80;;;3.72;;
19036;SDS011;9651;49.138;8.900;2023-08-21T17:14:31;7.57;;;4.20;;
19036;SDS011;9651;49.138;8.900;2023-08-21T17:18:33;6.05;;;3.90;;
19036;SDS011;9651;49.138;8.900;2023-08-21T17:22:36;5.75;;;3.50;;
19036;SDS011;9651;49.138;8.900;2023-08-21T17:26:38;4.57;;;3.92;;
19036;SDS011;9651;49.138;8.900;2023-08-21T17:30:40;4.25;;;3.92;;
19036;SDS011;9651;49.138;8.900;2023-08-21T17:34:42;5.20;;;4.20;;
19036;SDS011;9651;49.138;8.900;2023-08-21T17:38:46;7.68;;;3.88;;
19036;SDS011;9651;49.138;8.900;2023-08-21T17:42:47;5.18;;;3.65;;
19036;SDS011;9651;49.138;8.900;2023-08-21T17:46:49;4.65;;;4.25;;
19036;SDS011;9651;49.138;8.900;2023-08-21T17:50:51;5.50;;;4.88;;
19036;SDS011;9651;49.138;8.900;2023-08-21T17:54:55;7.47;;;5.55;;
19036;SDS011;9651;49.138;8.900;2023-08-21T17:58:57;5.68;;;4.75;;
19036;SDS011;9651;49.138;8.900;2023-08-21T18:02:58;6.63;;;5.72;;
19036;SDS011;9651;49.138;8.900;2023-08-21T18:07:03;6.85;;;5.82;;
19036;SDS011;9651;49.138;8.900;2023-08-21T18:11:06;14.20;;;5.47;;
19036;SDS011;9651;49.138;8.900;2023-08-21T18:15:09;7.00;;;5.55;;
19036;SDS011;9651;49.138;8.900;2023-08-21T18:19:11;7.70;;;4.22;;
19036;SDS011;9651;49.138;8.900;2023-08-21T18:23:13;6.53;;;5.25;;
19036;SDS011;9651;49.138;8.900;2023-08-21T18:27:16;10.52;;;5.47;;
19036;SDS011;9651;49.138;8.900;2023-08-21T18:31:18;10.90;;;4.78;;
19036;SDS011;9651;49.138;8.900;2023-08-21T18:35:19;8.40;;;5.60;;
19036;SDS011;9651;49.138;8.900;2023-08-21T18:39:21;7.78;;;4.55;;
19036;SDS011;9651;49.138;8.900;2023-08-21T18:43:25;5.43;;;4.50;;
19036;SDS011;9651;49.138;8.900;2023-08-21T18:47:26;6.85;;;4.18;;
19036;SDS011;9651;49.138;8.900;2023-08-21T18:51:28;5.63;;;4.35;;
19036;SDS011;9651;49.138;8.900;2023-08-21T18:55:30;9.10;;;5.00;;
19036;SDS011;9651;49.138;8.900;2023-08-21T18:59:37;9.52;;;4.07;;
19036;SDS011;9651;49.138;8.900;2023-08-21T19:03:39;5.10;;;4.13;;
19036;SDS011;9651;49.138;8.900;2023-08-21T19:07:40;6.85;;;4.57;;
19036;SDS011;9651;49.138;8.900;2023-08-21T19:11:42;6.00;;;4.00;;
19036;SDS011;9651;49.138;8.900;2023-08-21T19:15:45;9.52;;;4.32;;
19036;SDS011;9651;49.138;8.900;2023-08-21T19:19:47;6.53;;;4.80;;
19036;SDS011;9651;49.138;8.900;2023-08-21T19:23:49;5.88;;;3.60;;
19036;SDS011;9651;49.138;8.900;2023-08-21T19:27:51;9.95;;;4.40;;
19036;SDS011;9651;49.138;8.900;2023-08-21T19:31:54;5.63;;;4.22;;
19036;SDS011;9651;49.138;8.900;2023-08-21T19:35:56;8.20;;;4.68;;
19036;SDS011;9651;49.138;8.900;2023-08-21T19:39:58;6.28;;;4.30;;
19036;SDS011;9651;49.138;8.900;2023-08-21T19:44:00;7.97;;;5.00;;
19036;SDS011;9651;49.138;8.900;2023-08-21T19:48:04;7.05;;;4.90;;
19036;SDS011;9651;49.138;8.900;2023-08-21T19:52:06;9.15;;;4.95;;
19036;SDS011;9651;49.138;8.900;2023-08-21T19:56:08;7.63;;;4.05;;
19036;SDS011;9651;49.138;8.900;2023-08-21T20:00:10;7.18;;;4.45;;
19036;SDS011;9651;49.138;8.900;2023-08-21T20:04:13;6.35;;;4.30;;
19036;SDS011;9651;49.138;8.900;2023-08-21T20:08:15;9.30;;;5.00;;
19036;SDS011;9651;49.138;8.900;2023-08-21T20:12:17;7.18;;;4.57;;
19036;SDS011;9651;49.138;8.900;2023-08-21T20:16:20;6.03;;;4.50;;
19036;SDS011;9651;49.138;8.900;2023-08-21T20:20:23;9.13;;;5.07;;
19036;SDS011;9651;49.138;8.900;2023-08-21T20:24:26;11.02;;;4.72;;
19036;SDS011;9651;49.138;8.900;2023-08-21T20:28:29;7.93;;;4.95;;
19036;SDS011;9651;49.138;8.900;2023-08-21T20:32:31;6.72;;;4.50;;
19036;SDS011;9651;49.138;8.900;2023-08-21T20:36:34;8.63;;;4.78;;
19036;SDS011;9651;49.138;8.900;2023-08-21T20:40:36;6.43;;;4.88;;
19036;SDS011;9651;49.138;8.900;2023-08-21T20:44:38;5.78;;;4.40;;
19036;SDS011;9651;49.138;8.900;2023-08-21T20:48:40;6.05;;;4.43;;
19036;SDS011;9651;49.138;8.900;2023-08-21T20:52:43;7.82;;;4.75;;
19036;SDS011;9651;49.138;8.900;2023-08-21T20:56:47;5.28;;;4.78;;
19036;SDS011;9651;49.138;8.900;2023-08-21T21:00:49;8.57;;;5.28;;
19036;SDS011;9651;49.138;8.900;2023-08-21T21:04:51;6.72;;;5.28;;
19036;SDS011;9651;49.138;8.900;2023-08-21T21:08:55;6.72;;;4.93;;
19036;SDS011;9651;49.138;8.900;2023-08-21T21:12:56;5.78;;;4.68;;
19036;SDS011;9651;49.138;8.900;2023-08-21T21:16:58;8.40;;;5.10;;
19036;SDS011;9651;49.138;8.900;2023-08-21T21:21:00;12.07;;;5.18;;
19036;SDS011;9651;49.138;8.900;2023-08-21T21:25:04;6.88;;;4.43;;
19036;SDS011;9651;49.138;8.900;2023-08-21T21:29:06;5.72;;;4.53;;
19036;SDS011;9651;49.138;8.900;2023-08-21T21:33:08;5.60;;;4.97;;
19036;SDS011;9651;49.138;8.900;2023-08-21T21:37:10;6.90;;;4.63;;
19036;SDS011;9651;49.138;8.900;2023-08-21T21:41:13;5.88;;;4.55;;
19036;SDS011;9651;49.138;8.900;2023-08-21T21:45:15;5.85;;;4.45;;
19036;SDS011;9651;49.138;8.900;2023-08-21T21:49:18;5.50;;;4.47;;
19036;SDS011;9651;49.138;8.900;2023-08-21T21:53:22;9.18;;;4.63;;
19036;SDS011;9651;49.138;8.900;2023-08-21T21:57:26;7.15;;;4.95;;
19036;SDS011;9651;49.138;8.900;2023-08-21T22:01:28;6.80;;;4.70;;
19036;SDS011;9651;49.138;8.900;2023-08-21T22:05:30;5.30;;;4.78;;
19036;SDS011;9651;49.138;8.900;2023-08-21T22:09:32;5.63;;;4.93;;
19036;SDS011;9651;49.138;8.900;2023-08-21T22:13:35;5.88;;;4.75;;
19036;SDS011;9651;49.138;8.900;2023-08-21T22:17:37;5.05;;;4.57;;
19036;SDS011;9651;49.138;8.900;2023-08-21T22:21:38;4.85;;;4.35;;
19036;SDS011;9651;49.138;8.900;2023-08-21T22:25:41;7.70;;;4.90;;
19036;SDS011;9651;49.138;8.900;2023-08-21T22:29:44;6.82;;;5.00;;
19036;SDS011;9651;49.138;8.900;2023-08-21T22:33:46;10.25;;;5.13;;
19036;SDS011;9651;49.138;8.900;2023-08-21T22:37:48;7.50;;;4.93;;
19036;SDS011;9651;49.138;8.900;2023-08-21T22:41:50;7.20;;;5.38;;
19036;SDS011;9651;49.138;8.900;2023-08-21T22:45:53;8.50;;;5.65;;
19036;SDS011;9651;49.138;8.900;2023-08-21T22:49:55;6.03;;;5.20;;
19036;SDS011;9651;49.138;8.900;2023-08-21T22:53:59;6.95;;;5.00;;
19036;SDS011;9651;49.138;8.900;2023-08-21T22:58:00;8.52;;;4.95;;
19036;SDS011;9651;49.138;8.900;2023-08-21T23:02:04;9.35;;;5.07;;
19036;SDS011;9651;49.138;8.900;2023-08-21T23:06:06;9.40;;;4.85;;
19036;SDS011;9651;49.138;8.900;2023-08-21T23:10:08;6.43;;;4.95;;
19036;SDS011;9651;49.138;8.900;2023-08-21T23:14:10;6.80;;;5.45;;
19036;SDS011;9651;49.138;8.900;2023-08-21T23:18:13;6.10;;;5.20;;
19036;SDS011;9651;49.138;8.900;2023-08-21T23:22:15;6.47;;;5.25;;
19036;SDS011;9651;49.138;8.900;2023-08-21T23:26:17;5.88;;;5.30;;
19036;SDS011;9651;49.138;8.900;2023-08-21T23:30:20;8.95;;;5.40;;
19036;SDS011;9651;49.138;8.900;2023-08-21T23:34:23;5.70;;;5.10;;
19036;SDS011;9651;49.138;8.900;2023-08-21T23:38:25;6.63;;;5.03;;
19036;SDS011;9651;49.138;8.900;2023-08-21T23:42:27;8.30;;;5.57;;
19036;SDS011;9651;49.138;8.900;2023-08-21T23:46:29;10.52;;;6.22;;
19036;SDS011;9651;49.138;8.900;2023-08-21T23:50:32;8.20;;;5.50;;
19036;SDS011;9651;49.138;8.900;2023-08-21T23:54:34;10.52;;;5.43;;
19036;SDS011;9651;49.138;8.900;2023-08-21T23:58:36;10.65;;;6.10;;
